createdAt,value
2017-11-06T00:00:10.780Z,51.34
2017-11-06T00:02:13.254Z,51.34
2017-11-06T00:04:15.696Z,51.35
2017-11-06T00:06:18.149Z,51.35
2017-11-06T00:08:20.603Z,51.34
2017-11-06T00:10:23.041Z,51.34
2017-11-06T00:12:25.496Z,51.35
2017-11-06T00:14:27.965Z,51.34
2017-11-06T00:16:30.417Z,51.34
2017-11-06T00:18:32.880Z,51.33
2017-11-06T00:20:35.336Z,51.33
2017-11-06T00:22:37.784Z,51.33
2017-11-06T00:24:40.308Z,51.33
2017-11-06T00:26:42.747Z,51.32
2017-11-06T00:28:45.465Z,51.33
2017-11-06T00:30:47.925Z,51.33
2017-11-06T00:32:50.369Z,51.33
2017-11-06T00:34:52.804Z,51.33
2017-11-06T00:36:55.254Z,51.33
2017-11-06T00:38:57.692Z,51.32
2017-11-06T00:41:00.124Z,51.33
2017-11-06T00:43:02.591Z,51.33
2017-11-06T00:45:05.085Z,51.32
2017-11-06T00:47:07.591Z,51.33
2017-11-06T00:49:10.058Z,51.32
2017-11-06T00:51:12.496Z,51.33
2017-11-06T00:53:14.935Z,51.33
2017-11-06T00:55:17.465Z,51.33
2017-11-06T00:57:19.941Z,51.32
2017-11-06T00:59:22.411Z,51.30
2017-11-06T01:01:24.886Z,51.30
2017-11-06T01:03:27.352Z,51.30
2017-11-06T01:05:29.826Z,51.32
2017-11-06T01:07:32.290Z,51.32
2017-11-06T01:09:34.769Z,51.32
2017-11-06T01:11:37.214Z,51.31
2017-11-06T01:13:39.704Z,51.31
2017-11-06T01:15:42.138Z,51.32
2017-11-06T01:17:44.577Z,51.32
2017-11-06T01:19:47.037Z,51.32
2017-11-06T01:21:49.473Z,51.32
2017-11-06T01:23:51.943Z,51.32
2017-11-06T01:25:54.427Z,51.32
2017-11-06T01:27:56.859Z,51.31
2017-11-06T01:29:59.429Z,51.32
2017-11-06T01:32:02.005Z,51.32
2017-11-06T01:34:04.501Z,51.31
2017-11-06T01:36:06.947Z,51.32
2017-11-06T01:38:09.404Z,51.31
2017-11-06T01:40:11.865Z,51.31
2017-11-06T01:42:14.401Z,51.32
2017-11-06T01:44:16.856Z,51.32
2017-11-06T01:46:19.292Z,51.27
2017-11-06T01:48:21.736Z,51.31
2017-11-06T01:50:24.260Z,51.31
2017-11-06T01:52:26.700Z,51.31
2017-11-06T01:54:29.205Z,51.32
2017-11-06T01:56:31.674Z,51.31
2017-11-06T01:58:34.123Z,51.32
2017-11-06T02:00:36.582Z,51.31
2017-11-06T02:02:39.045Z,51.32
2017-11-06T02:04:41.556Z,51.31
2017-11-06T02:06:43.995Z,51.29
2017-11-06T02:08:46.453Z,51.29
2017-11-06T02:10:48.887Z,51.30
2017-11-06T02:12:51.321Z,51.29
2017-11-06T02:14:53.820Z,51.28
2017-11-06T02:16:56.287Z,51.29
2017-11-06T02:18:58.745Z,51.29
2017-11-06T02:21:01.209Z,51.28
2017-11-06T02:23:03.652Z,51.30
2017-11-06T02:25:06.094Z,51.29
2017-11-06T02:27:08.558Z,51.29
2017-11-06T02:29:11.000Z,51.28
2017-11-06T02:31:13.571Z,51.28
2017-11-06T02:33:16.036Z,51.28
2017-11-06T02:35:18.480Z,51.29
2017-11-06T02:37:20.975Z,51.29
2017-11-06T02:39:23.434Z,51.28
2017-11-06T02:41:25.873Z,51.28
2017-11-06T02:43:28.312Z,51.27
2017-11-06T02:45:30.767Z,51.27
2017-11-06T02:47:33.209Z,51.28
2017-11-06T02:49:35.636Z,51.27
2017-11-06T02:51:38.133Z,51.27
2017-11-06T02:53:40.568Z,51.26
2017-11-06T02:55:43.107Z,51.26
2017-11-06T02:57:45.568Z,51.26
2017-11-06T02:59:48.010Z,51.26
2017-11-06T03:01:50.448Z,51.26
2017-11-06T03:03:52.913Z,51.27
2017-11-06T03:05:55.365Z,51.26
2017-11-06T03:07:57.823Z,51.26
2017-11-06T03:10:00.268Z,51.26
2017-11-06T03:12:02.709Z,51.26
2017-11-06T03:14:05.162Z,51.27
2017-11-06T03:16:07.638Z,51.27
2017-11-06T03:18:10.106Z,51.27
2017-11-06T03:20:12.661Z,51.27
2017-11-06T03:22:15.217Z,51.26
2017-11-06T03:24:17.661Z,51.25
2017-11-06T03:26:20.158Z,51.26
2017-11-06T03:28:22.612Z,51.25
2017-11-06T03:30:25.107Z,51.26
2017-11-06T03:32:27.675Z,51.25
2017-11-06T03:34:30.140Z,51.24
2017-11-06T03:36:32.580Z,51.24
2017-11-06T03:38:35.022Z,51.24
2017-11-06T03:40:37.479Z,51.24
2017-11-06T03:42:39.916Z,51.24
2017-11-06T03:44:42.369Z,51.24
2017-11-06T03:46:44.832Z,51.25
2017-11-06T03:48:47.289Z,51.25
2017-11-06T03:50:49.809Z,51.25
2017-11-06T03:52:52.271Z,51.25
2017-11-06T03:54:54.709Z,51.25
2017-11-06T03:56:57.229Z,51.25
2017-11-06T03:58:59.685Z,51.23
2017-11-06T04:01:02.125Z,51.23
2017-11-06T04:03:04.567Z,51.25
2017-11-06T04:05:07.038Z,51.23
2017-11-06T04:07:09.491Z,51.23
2017-11-06T04:09:11.922Z,51.23
2017-11-06T04:11:14.408Z,51.22
2017-11-06T04:13:16.862Z,51.22
2017-11-06T04:15:19.313Z,51.22
2017-11-06T04:17:21.792Z,51.22
2017-11-06T04:19:24.224Z,51.22
2017-11-06T04:21:26.663Z,51.22
2017-11-06T04:23:29.148Z,51.21
2017-11-06T04:25:31.602Z,51.21
2017-11-06T04:27:34.045Z,51.20
2017-11-06T04:29:36.549Z,51.20
2017-11-06T04:31:38.999Z,51.21
2017-11-06T04:33:44.440Z,51.22
2017-11-06T04:35:46.909Z,51.21
2017-11-06T04:37:49.338Z,51.22
2017-11-06T04:39:51.860Z,51.22
2017-11-06T04:41:54.426Z,51.21
2017-11-06T04:43:56.908Z,51.21
2017-11-06T04:45:59.349Z,51.21
2017-11-06T04:48:01.820Z,51.22
2017-11-06T04:50:04.250Z,51.23
2017-11-06T04:52:06.680Z,51.21
2017-11-06T04:54:09.135Z,51.22
2017-11-06T04:56:11.627Z,51.21
2017-11-06T04:58:14.072Z,51.21
2017-11-06T05:00:16.573Z,51.21
2017-11-06T05:02:19.016Z,51.20
2017-11-06T05:04:21.475Z,51.20
2017-11-06T05:06:23.937Z,51.19
2017-11-06T05:08:26.407Z,51.19
2017-11-06T05:10:28.900Z,51.20
2017-11-06T05:12:32.255Z,51.20
2017-11-06T05:14:34.693Z,51.19
2017-11-06T05:16:37.144Z,51.19
2017-11-06T05:18:39.696Z,51.19
2017-11-06T05:20:42.180Z,51.19
2017-11-06T05:22:44.633Z,51.19
2017-11-06T05:24:47.103Z,51.19
2017-11-06T05:26:49.589Z,51.19
2017-11-06T05:28:52.066Z,51.19
2017-11-06T05:30:54.652Z,51.19
2017-11-06T05:32:57.093Z,51.19
2017-11-06T05:34:59.732Z,51.19
2017-11-06T05:37:02.198Z,51.19
2017-11-06T05:39:04.642Z,51.19
2017-11-06T05:41:07.083Z,51.19
2017-11-06T05:43:09.668Z,51.19
2017-11-06T05:45:12.101Z,51.19
2017-11-06T05:47:14.537Z,51.19
2017-11-06T05:49:17.165Z,51.18
2017-11-06T05:51:19.655Z,51.18
2017-11-06T05:53:22.123Z,51.18
2017-11-06T05:55:24.566Z,51.19
2017-11-06T05:57:27.039Z,51.18
2017-11-06T05:59:29.516Z,51.18
2017-11-06T06:01:31.984Z,51.18
2017-11-06T06:03:34.428Z,51.18
2017-11-06T06:05:36.886Z,51.18
2017-11-06T06:07:39.346Z,51.17
2017-11-06T06:09:41.871Z,51.19
2017-11-06T06:11:44.314Z,51.19
2017-11-06T06:13:46.823Z,51.20
2017-11-06T06:15:49.238Z,51.20
2017-11-06T06:17:51.687Z,51.18
2017-11-06T06:19:54.153Z,51.17
2017-11-06T06:21:56.693Z,51.19
2017-11-06T06:23:59.145Z,51.17
2017-11-06T06:26:01.608Z,51.17
2017-11-06T06:28:04.044Z,51.18
2017-11-06T06:30:06.481Z,51.17
2017-11-06T06:32:08.940Z,51.18
2017-11-06T06:34:11.380Z,51.16
2017-11-06T06:36:14.046Z,51.17
2017-11-06T06:38:16.513Z,51.16
2017-11-06T06:40:19.032Z,51.16
2017-11-06T06:42:21.541Z,51.17
2017-11-06T06:44:24.010Z,51.15
2017-11-06T06:46:26.530Z,51.14
2017-11-06T06:48:28.970Z,51.15
2017-11-06T06:50:31.434Z,51.14
2017-11-06T06:52:33.863Z,51.14
2017-11-06T06:54:36.308Z,51.14
2017-11-06T06:56:38.801Z,51.14
2017-11-06T06:58:41.246Z,51.13
2017-11-06T07:00:43.721Z,51.13
2017-11-06T07:02:46.195Z,51.12
2017-11-06T07:04:48.676Z,51.11
2017-11-06T07:06:51.115Z,51.13
2017-11-06T07:08:53.577Z,51.10
2017-11-06T07:10:56.025Z,51.11
2017-11-06T07:12:58.649Z,51.20
2017-11-06T07:15:01.128Z,51.42
2017-11-06T07:17:03.592Z,51.42
2017-11-06T07:19:06.028Z,51.53
2017-11-06T07:21:08.494Z,51.61
2017-11-06T07:23:10.932Z,51.64
2017-11-06T07:25:13.365Z,51.62
2017-11-06T07:27:15.853Z,51.58
2017-11-06T07:29:18.294Z,51.51
2017-11-06T07:31:20.792Z,51.65
2017-11-06T07:33:23.260Z,51.62
2017-11-06T07:35:25.702Z,51.59
2017-11-06T07:37:28.350Z,51.52
2017-11-06T07:39:30.863Z,51.44
2017-11-06T07:41:33.305Z,51.43
2017-11-06T07:43:35.797Z,51.38
2017-11-06T07:45:38.328Z,51.34
2017-11-06T07:47:41.662Z,51.34
2017-11-06T07:49:44.104Z,51.35
2017-11-06T07:51:46.588Z,51.33
2017-11-06T07:53:49.084Z,51.25
2017-11-06T07:55:51.553Z,51.22
2017-11-06T07:57:54.025Z,51.19
2017-11-06T07:59:56.473Z,51.06
2017-11-06T08:01:58.959Z,51.07
2017-11-06T08:04:01.526Z,51.03
2017-11-06T08:06:04.107Z,50.95
2017-11-06T08:08:06.553Z,50.97
2017-11-06T08:10:09.103Z,50.87
2017-11-06T08:12:11.625Z,50.75
2017-11-06T08:14:14.077Z,50.77
2017-11-06T08:16:16.531Z,50.77
2017-11-06T08:18:18.973Z,50.71
2017-11-06T08:20:21.424Z,50.75
2017-11-06T08:22:23.915Z,50.76
2017-11-06T08:24:26.432Z,50.74
2017-11-06T08:26:28.922Z,50.65
2017-11-06T08:28:31.388Z,50.68
2017-11-06T08:30:33.845Z,50.66
2017-11-06T08:32:36.285Z,50.63
2017-11-06T08:34:38.737Z,50.61
2017-11-06T08:37:00.229Z,50.56
2017-11-06T08:39:02.940Z,50.54
2017-11-06T08:41:05.441Z,50.50
2017-11-06T08:43:07.884Z,50.51
2017-11-06T08:45:10.389Z,50.47
2017-11-06T08:47:13.000Z,50.42
2017-11-06T08:49:15.458Z,50.43
2017-11-06T08:51:17.929Z,50.42
2017-11-06T08:53:20.432Z,50.44
2017-11-06T08:55:22.868Z,50.52
2017-11-06T08:57:25.307Z,50.56
2017-11-06T08:59:27.816Z,50.56
2017-11-06T09:01:30.350Z,50.51
2017-11-06T09:03:34.482Z,50.36
2017-11-06T09:05:38.785Z,50.33
2017-11-06T09:07:42.831Z,50.29
2017-11-06T09:09:45.352Z,50.26
2017-11-06T09:11:47.847Z,50.24
2017-11-06T09:13:50.296Z,50.21
2017-11-06T09:15:52.785Z,50.21
2017-11-06T09:17:55.273Z,50.19
2017-11-06T09:19:57.705Z,50.16
2017-11-06T09:22:00.172Z,50.16
2017-11-06T09:24:02.661Z,50.16
2017-11-06T09:26:05.154Z,50.17
2017-11-06T09:28:07.590Z,50.16
2017-11-06T09:30:10.150Z,50.13
2017-11-06T09:32:12.859Z,50.07
2017-11-06T09:34:15.420Z,50.02
2017-11-06T09:36:17.976Z,49.33
2017-11-06T09:38:20.433Z,48.67
2017-11-06T09:40:23.117Z,48.48
2017-11-06T09:42:25.578Z,48.42
2017-11-06T09:44:28.023Z,48.12
2017-11-06T09:46:30.457Z,47.84
2017-11-06T09:48:32.941Z,47.85
2017-11-06T09:50:35.369Z,47.85
2017-11-06T09:52:38.048Z,47.59
2017-11-06T09:54:40.527Z,47.37
2017-11-06T09:56:42.977Z,47.44
2017-11-06T09:58:45.480Z,47.66
2017-11-06T10:00:48.005Z,47.73
2017-11-06T10:02:50.440Z,47.92
2017-11-06T10:04:52.872Z,48.08
2017-11-06T10:06:55.445Z,48.17
2017-11-06T10:08:57.915Z,48.20
2017-11-06T10:11:00.352Z,48.25
2017-11-06T10:13:02.824Z,47.65
2017-11-06T10:15:05.289Z,46.72
2017-11-06T10:17:07.771Z,46.97
2017-11-06T10:19:10.240Z,47.38
2017-11-06T10:21:12.730Z,47.65
2017-11-06T10:23:15.180Z,47.74
2017-11-06T10:25:17.680Z,47.82
2017-11-06T10:27:20.141Z,47.90
2017-11-06T10:29:22.646Z,47.95
2017-11-06T10:31:25.133Z,48.03
2017-11-06T10:33:27.572Z,48.08
2017-11-06T10:35:30.013Z,48.11
2017-11-06T10:37:32.485Z,48.14
2017-11-06T10:39:36.258Z,48.20
2017-11-06T10:41:38.933Z,48.22
2017-11-06T10:43:41.440Z,48.26
2017-11-06T10:45:43.876Z,48.33
2017-11-06T10:47:46.318Z,48.23
2017-11-06T10:49:48.853Z,48.26
2017-11-06T10:51:51.290Z,48.27
2017-11-06T10:53:53.730Z,48.47
2017-11-06T10:55:56.220Z,48.32
2017-11-06T10:57:58.665Z,48.29
2017-11-06T11:00:01.100Z,48.29
2017-11-06T11:02:03.588Z,48.29
2017-11-06T11:04:06.016Z,48.32
2017-11-06T11:06:08.460Z,48.32
2017-11-06T11:08:10.972Z,48.35
2017-11-06T11:10:13.453Z,48.36
2017-11-06T11:12:15.924Z,48.35
2017-11-06T11:14:18.392Z,48.37
2017-11-06T11:16:20.832Z,48.39
2017-11-06T11:18:23.328Z,48.37
2017-11-06T11:20:25.820Z,48.34
2017-11-06T11:22:28.252Z,48.29
2017-11-06T11:24:30.694Z,48.27
2017-11-06T11:26:33.413Z,48.24
2017-11-06T11:28:35.880Z,48.23
2017-11-06T11:30:38.355Z,48.23
2017-11-06T11:32:40.817Z,48.21
2017-11-06T11:34:43.287Z,48.21
2017-11-06T11:36:45.735Z,48.21
2017-11-06T11:38:48.237Z,48.23
2017-11-06T11:40:50.707Z,48.22
2017-11-06T11:42:53.243Z,48.24
2017-11-06T11:44:55.711Z,48.24
2017-11-06T11:46:58.221Z,48.26
2017-11-06T11:49:00.675Z,48.26
2017-11-06T11:51:03.159Z,48.29
2017-11-06T11:53:05.628Z,48.32
2017-11-06T11:55:08.086Z,48.35
2017-11-06T11:57:10.573Z,48.37
2017-11-06T11:59:13.025Z,48.39
2017-11-06T12:01:15.466Z,48.46
2017-11-06T12:03:17.977Z,48.50
2017-11-06T12:05:20.416Z,48.54
2017-11-06T12:07:22.896Z,48.58
2017-11-06T12:09:25.364Z,48.75
2017-11-06T12:11:27.880Z,48.82
2017-11-06T12:13:30.348Z,48.88
2017-11-06T12:15:32.901Z,48.83
2017-11-06T12:17:35.338Z,46.66
2017-11-06T12:19:37.782Z,47.32
2017-11-06T12:21:40.243Z,47.86
2017-11-06T12:23:42.692Z,47.45
2017-11-06T12:25:46.138Z,47.83
2017-11-06T12:27:48.599Z,48.21
2017-11-06T12:29:51.118Z,48.46
2017-11-06T12:31:54.472Z,48.54
2017-11-06T12:33:56.944Z,48.54
2017-11-06T12:35:59.503Z,48.53
2017-11-06T12:38:01.976Z,48.58
2017-11-06T12:40:04.460Z,48.60
2017-11-06T12:42:06.975Z,48.70
2017-11-06T12:44:09.429Z,48.69
2017-11-06T12:46:11.885Z,48.64
2017-11-06T12:48:14.333Z,48.57
2017-11-06T12:50:16.836Z,48.57
2017-11-06T12:52:19.298Z,48.57
2017-11-06T12:54:21.736Z,48.55
2017-11-06T12:56:24.251Z,48.58
2017-11-06T12:58:26.795Z,48.58
2017-11-06T13:00:29.229Z,48.59
2017-11-06T13:02:31.665Z,48.60
2017-11-06T13:04:34.132Z,48.74
2017-11-06T13:06:36.734Z,48.80
2017-11-06T13:08:39.185Z,48.97
2017-11-06T13:10:41.686Z,49.12
2017-11-06T13:12:44.208Z,49.30
2017-11-06T13:14:46.697Z,49.49
2017-11-06T13:16:49.157Z,49.57
2017-11-06T13:18:51.600Z,49.62
2017-11-06T13:20:54.102Z,49.68
2017-11-06T13:22:56.569Z,49.71
2017-11-06T13:24:59.018Z,49.72
2017-11-06T13:27:01.467Z,49.75
2017-11-06T13:29:03.923Z,49.85
2017-11-06T13:31:06.380Z,49.76
2017-11-06T13:33:08.936Z,49.57
2017-11-06T13:35:11.708Z,49.58
2017-11-06T13:37:14.153Z,49.56
2017-11-06T13:39:16.749Z,49.56
2017-11-06T13:41:20.118Z,49.57
2017-11-06T13:43:22.582Z,49.58
2017-11-06T13:45:25.341Z,49.55
2017-11-06T13:47:27.856Z,49.54
2017-11-06T13:49:30.313Z,49.60
2017-11-06T13:51:32.748Z,49.61
2017-11-06T13:53:35.292Z,49.60
2017-11-06T13:55:37.733Z,49.61
2017-11-06T13:57:40.211Z,49.66
2017-11-06T13:59:42.780Z,49.63
2017-11-06T14:01:45.233Z,49.61
2017-11-06T14:03:47.669Z,49.60
2017-11-06T14:05:50.245Z,49.60
2017-11-06T14:07:52.683Z,49.60
2017-11-06T14:09:55.119Z,49.59
2017-11-06T14:11:57.582Z,49.59
2017-11-06T14:14:00.038Z,49.61
2017-11-06T14:16:02.634Z,49.62
2017-11-06T14:18:05.114Z,49.62
2017-11-06T14:20:07.560Z,49.62
2017-11-06T14:22:10.033Z,49.64
2017-11-06T14:24:12.518Z,49.63
2017-11-06T14:26:15.049Z,49.64
2017-11-06T14:28:17.568Z,49.66
2017-11-06T14:30:20.037Z,49.49
2017-11-06T14:32:22.481Z,49.46
2017-11-06T14:34:24.920Z,49.51
2017-11-06T14:36:27.381Z,49.56
2017-11-06T14:38:29.824Z,49.53
2017-11-06T14:40:32.292Z,49.57
2017-11-06T14:42:34.758Z,49.60
2017-11-06T14:44:37.231Z,49.60
2017-11-06T14:46:39.751Z,49.60
2017-11-06T14:48:42.215Z,49.61
2017-11-06T14:50:44.647Z,49.62
2017-11-06T14:52:47.184Z,49.63
2017-11-06T14:54:49.653Z,49.64
2017-11-06T14:56:52.108Z,49.66
2017-11-06T14:58:54.549Z,49.67
2017-11-06T15:00:57.001Z,49.68
2017-11-06T15:02:59.449Z,49.71
2017-11-06T15:05:01.885Z,49.71
2017-11-06T15:07:04.382Z,49.73
2017-11-06T15:09:06.820Z,49.74
2017-11-06T15:11:09.253Z,49.75
2017-11-06T15:13:11.725Z,49.76
2017-11-06T15:15:14.176Z,49.78
2017-11-06T15:17:16.642Z,49.78
2017-11-06T15:19:19.107Z,49.80
2017-11-06T15:21:21.608Z,49.81
2017-11-06T15:23:24.215Z,49.82
2017-11-06T15:25:26.787Z,49.83
2017-11-06T15:27:29.218Z,49.84
2017-11-06T15:29:31.664Z,49.92
2017-11-06T15:31:34.233Z,49.91
2017-11-06T15:33:36.660Z,49.93
2017-11-06T15:35:39.103Z,49.98
2017-11-06T15:37:41.565Z,50.05
2017-11-06T15:39:44.015Z,50.10
2017-11-06T15:41:46.553Z,50.14
2017-11-06T15:43:49.020Z,50.17
2017-11-06T15:45:51.501Z,50.21
2017-11-06T15:47:54.080Z,50.22
2017-11-06T15:49:56.549Z,50.23
2017-11-06T15:51:59.006Z,50.25
2017-11-06T15:54:01.509Z,50.26
2017-11-06T15:56:04.015Z,50.28
2017-11-06T15:58:06.469Z,50.30
2017-11-06T16:00:08.945Z,50.30
2017-11-06T16:02:11.392Z,50.33
2017-11-06T16:04:13.950Z,50.32
2017-11-06T16:06:16.386Z,50.33
2017-11-06T16:08:18.868Z,50.33
2017-11-06T16:10:21.381Z,50.36
2017-11-06T16:12:23.830Z,50.37
2017-11-06T16:14:26.320Z,50.37
2017-11-06T16:16:28.776Z,50.41
2017-11-06T16:18:31.265Z,50.42
2017-11-06T16:20:33.731Z,50.43
2017-11-06T16:22:36.201Z,50.44
2017-11-06T16:24:38.633Z,50.45
2017-11-06T16:26:41.148Z,50.45
2017-11-06T16:28:43.590Z,50.47
2017-11-06T16:30:46.027Z,50.48
2017-11-06T16:32:48.488Z,50.49
2017-11-06T16:34:50.946Z,50.50
2017-11-06T16:36:53.403Z,50.51
2017-11-06T16:38:55.960Z,50.51
2017-11-06T16:40:58.451Z,50.52
2017-11-06T16:43:01.009Z,50.51
2017-11-06T16:45:03.468Z,50.51
2017-11-06T16:47:05.915Z,50.51
2017-11-06T16:49:08.424Z,50.50
2017-11-06T16:51:10.893Z,50.50
2017-11-06T16:53:13.352Z,50.50
2017-11-06T16:55:15.845Z,50.51
2017-11-06T16:57:18.303Z,50.52
2017-11-06T16:59:20.735Z,50.53
2017-11-06T17:01:23.185Z,50.60
2017-11-06T17:03:25.658Z,50.56
2017-11-06T17:05:28.113Z,50.53
2017-11-06T17:07:30.555Z,50.51
2017-11-06T17:09:33.030Z,50.50
2017-11-06T17:11:35.516Z,50.49
2017-11-06T17:13:37.963Z,50.49
2017-11-06T17:15:40.541Z,50.49
2017-11-06T17:17:43.051Z,50.50
2017-11-06T17:19:45.501Z,50.49
2017-11-06T17:21:47.984Z,50.50
2017-11-06T17:23:50.425Z,50.51
2017-11-06T17:25:52.936Z,50.50
2017-11-06T17:27:55.489Z,50.49
2017-11-06T17:29:58.026Z,50.49
2017-11-06T17:32:00.531Z,50.51
2017-11-06T17:34:02.992Z,50.51
2017-11-06T17:36:05.530Z,50.53
2017-11-06T17:38:08.069Z,50.53
2017-11-06T17:40:10.544Z,50.54
2017-11-06T17:42:13.108Z,50.56
2017-11-06T17:44:15.553Z,50.57
2017-11-06T17:46:18.074Z,50.58
2017-11-06T17:48:20.600Z,50.59
2017-11-06T17:50:23.086Z,50.60
2017-11-06T17:52:25.591Z,50.61
2017-11-06T17:54:28.029Z,50.62
2017-11-06T17:56:30.479Z,50.64
2017-11-06T17:58:33.016Z,50.66
2017-11-06T18:00:35.481Z,50.67
2017-11-06T18:02:37.961Z,50.69
2017-11-06T18:04:40.529Z,50.71
2017-11-06T18:06:42.989Z,50.74
2017-11-06T18:08:45.437Z,50.75
2017-11-06T18:10:47.903Z,50.75
2017-11-06T18:12:50.357Z,50.76
2017-11-06T18:14:52.917Z,50.78
2017-11-06T18:16:55.379Z,50.80
2017-11-06T18:18:57.852Z,50.82
2017-11-06T18:21:00.286Z,50.83
2017-11-06T18:23:02.753Z,50.85
2017-11-06T18:25:05.225Z,50.88
2017-11-06T18:27:07.660Z,50.87
2017-11-06T18:29:10.177Z,50.90
2017-11-06T18:31:12.664Z,50.88
2017-11-06T18:33:15.105Z,50.91
2017-11-06T18:35:17.582Z,50.90
2017-11-06T18:37:20.110Z,50.94
2017-11-06T18:39:22.578Z,50.92
2017-11-06T18:41:25.053Z,50.95
2017-11-06T18:43:27.508Z,50.95
2017-11-06T18:45:30.055Z,50.97
2017-11-06T18:47:32.516Z,50.98
2017-11-06T18:49:34.969Z,50.98
2017-11-06T18:51:37.444Z,50.98
2017-11-06T18:53:39.910Z,50.99
2017-11-06T18:55:42.391Z,50.99
2017-11-06T18:57:44.825Z,50.99
2017-11-06T18:59:47.284Z,50.99
2017-11-06T19:01:49.784Z,51.00
2017-11-06T19:03:52.217Z,50.99
2017-11-06T19:05:54.671Z,51.02
2017-11-06T19:07:57.133Z,51.00
2017-11-06T19:09:59.685Z,51.00
2017-11-06T19:12:02.148Z,51.01
2017-11-06T19:14:04.589Z,51.03
2017-11-06T19:16:07.050Z,51.01
2017-11-06T19:18:09.511Z,51.00
2017-11-06T19:20:11.961Z,51.00
2017-11-06T19:22:14.492Z,51.00
2017-11-06T19:24:16.966Z,51.01
2017-11-06T19:26:19.403Z,51.00
2017-11-06T19:28:21.844Z,51.01
2017-11-06T19:30:24.320Z,51.01
2017-11-06T19:32:26.773Z,51.01
2017-11-06T19:34:29.226Z,51.00
2017-11-06T19:36:31.687Z,51.00
2017-11-06T19:38:34.154Z,51.02
2017-11-06T19:40:36.618Z,51.02
2017-11-06T19:42:39.668Z,51.01
2017-11-06T19:44:42.189Z,51.01
2017-11-06T19:46:44.809Z,51.02
2017-11-06T19:48:47.653Z,51.02
2017-11-06T19:50:50.470Z,51.01
2017-11-06T19:52:53.087Z,51.01
2017-11-06T19:54:55.656Z,51.02
2017-11-06T19:56:58.102Z,51.02
2017-11-06T19:59:00.859Z,51.02
2017-11-06T20:01:03.361Z,51.02
2017-11-06T20:03:05.808Z,51.02
2017-11-06T20:05:08.264Z,51.02
2017-11-06T20:07:10.785Z,51.02
2017-11-06T20:09:13.255Z,51.03
2017-11-06T20:11:15.692Z,51.02
2017-11-06T20:13:18.157Z,51.02
2017-11-06T20:15:20.612Z,51.01
2017-11-06T20:17:23.063Z,51.01
2017-11-06T20:19:25.558Z,51.02
2017-11-06T20:21:28.040Z,51.02
2017-11-06T20:23:30.494Z,51.00
2017-11-06T20:25:32.977Z,51.02
2017-11-06T20:27:35.505Z,51.00
2017-11-06T20:29:38.072Z,51.00
2017-11-06T20:31:40.548Z,51.00
2017-11-06T20:33:42.988Z,51.01
2017-11-06T20:35:45.433Z,51.02
2017-11-06T20:37:48.069Z,51.01
2017-11-06T20:39:50.524Z,51.01
2017-11-06T20:41:52.983Z,51.01
2017-11-06T20:43:55.571Z,51.01
2017-11-06T20:45:58.032Z,51.01
2017-11-06T20:48:00.469Z,51.01
2017-11-06T20:50:02.959Z,51.01
2017-11-06T20:52:05.400Z,51.01
2017-11-06T20:54:07.973Z,51.01
2017-11-06T20:56:10.455Z,51.01
2017-11-06T20:58:12.897Z,51.01
2017-11-06T21:00:15.372Z,51.00
2017-11-06T21:02:17.832Z,51.01
2017-11-06T21:04:20.268Z,51.01
2017-11-06T21:06:22.709Z,51.00
2017-11-06T21:08:25.160Z,51.00
2017-11-06T21:10:27.672Z,51.01
2017-11-06T21:12:30.119Z,51.01
2017-11-06T21:14:32.584Z,51.01
2017-11-06T21:16:35.032Z,51.02
2017-11-06T21:18:37.476Z,51.04
2017-11-06T21:20:39.939Z,51.03
2017-11-06T21:22:42.484Z,51.03
2017-11-06T21:24:44.960Z,51.02
2017-11-06T21:26:47.426Z,51.03
2017-11-06T21:28:49.870Z,51.03
2017-11-06T21:30:52.310Z,51.04
2017-11-06T21:32:54.762Z,51.03
2017-11-06T21:34:57.270Z,51.02
2017-11-06T21:36:59.796Z,51.02
2017-11-06T21:39:02.259Z,51.02
2017-11-06T21:41:04.702Z,51.03
2017-11-06T21:43:07.153Z,51.03
2017-11-06T21:45:09.610Z,51.03
2017-11-06T21:47:12.079Z,51.03
2017-11-06T21:49:14.534Z,51.02
2017-11-06T21:51:17.019Z,51.02
2017-11-06T21:53:19.468Z,51.04
2017-11-06T21:55:21.972Z,51.04
2017-11-06T21:57:24.443Z,51.04
2017-11-06T21:59:26.888Z,51.04
2017-11-06T22:01:29.433Z,51.04
2017-11-06T22:03:31.887Z,51.04
2017-11-06T22:05:34.435Z,51.05
2017-11-06T22:07:36.895Z,51.04
2017-11-06T22:09:39.397Z,51.04
2017-11-06T22:11:41.860Z,51.04
2017-11-06T22:13:44.300Z,51.03
2017-11-06T22:15:46.819Z,51.03
2017-11-06T22:17:49.260Z,51.04
2017-11-06T22:19:51.761Z,51.03
2017-11-06T22:21:54.264Z,51.03
2017-11-06T22:23:56.700Z,51.03
2017-11-06T22:25:59.136Z,51.02
2017-11-06T22:28:01.602Z,51.02
2017-11-06T22:30:04.065Z,51.02
2017-11-06T22:32:06.508Z,51.02
2017-11-06T22:34:08.982Z,51.01
2017-11-06T22:36:11.530Z,51.01
2017-11-06T22:38:13.998Z,51.01
2017-11-06T22:40:16.462Z,51.02
2017-11-06T22:42:18.942Z,51.01
2017-11-06T22:44:21.389Z,51.01
2017-11-06T22:46:23.862Z,51.01
2017-11-06T22:48:26.299Z,51.02
2017-11-06T22:50:28.732Z,51.02
2017-11-06T22:52:31.222Z,51.01
2017-11-06T22:54:33.655Z,51.01
2017-11-06T22:56:36.173Z,51.00
2017-11-06T22:58:38.645Z,51.01
2017-11-06T23:00:41.078Z,51.01
2017-11-06T23:02:43.538Z,51.01
2017-11-06T23:04:45.999Z,51.01
2017-11-06T23:06:48.439Z,51.01
2017-11-06T23:08:50.887Z,51.00
2017-11-06T23:10:53.352Z,51.01
2017-11-06T23:12:55.785Z,51.00
2017-11-06T23:14:58.238Z,50.99
2017-11-06T23:17:00.702Z,50.99
2017-11-06T23:19:03.165Z,50.99
2017-11-06T23:21:05.674Z,51.00
2017-11-06T23:23:08.152Z,50.99
2017-11-06T23:25:10.616Z,50.98
2017-11-06T23:27:13.056Z,50.99
2017-11-06T23:29:15.649Z,50.98
2017-11-06T23:31:18.104Z,50.98
2017-11-06T23:33:20.607Z,50.96
2017-11-06T23:35:23.105Z,50.96
2017-11-06T23:37:25.553Z,50.96
2017-11-06T23:39:27.986Z,50.96
2017-11-06T23:41:30.454Z,50.96
2017-11-06T23:43:32.907Z,50.97
2017-11-06T23:45:35.353Z,50.96
2017-11-06T23:47:37.808Z,50.96
2017-11-06T23:49:40.361Z,50.94
2017-11-06T23:51:42.832Z,50.94
2017-11-06T23:53:45.296Z,50.93
2017-11-06T23:55:47.728Z,50.93
2017-11-06T23:57:50.290Z,50.93
2017-11-06T23:59:52.768Z,50.93
